Time;durP1;ratioP1;P1;durP2;ratioP2;P2;SDS_P1;SDS_P2;PMS_P1;PMS_P2;Temp;Humidity;BMP_temperature;BMP_pressure;BME280_temperature;BME280_humidity;BME280_pressure;Samples;Min_cycle;Max_cycle;Signal;HPM_P1;HPM_P2
2022/12/28 00:01:32;;;;;;;4.57;1.80;;;;;;;2.35;97.72;99113.38;4204757;28;20115;-76
2022/12/28 00:03:32;;;;;;;6.18;2.28;;;;;;;2.40;97.30;99107.78;4189324;28;20504;-76
2022/12/28 00:05:32;;;;;;;5.07;2.30;;;;;;;2.45;97.35;99118.59;4188149;28;20120;-76
2022/12/28 00:07:33;;;;;;;3.22;2.15;;;;;;;2.49;96.95;99119.59;4189489;28;20550;-76
2022/12/28 00:09:33;;;;;;;2.90;1.90;;;;;;;2.44;97.13;99109.59;4188808;28;20464;-76
2022/12/28 00:11:34;;;;;;;4.70;1.98;;;;;;;2.41;97.16;99112.94;4193903;28;20048;-76
2022/12/28 00:13:34;;;;;;;3.50;1.75;;;;;;;2.39;97.38;99100.69;4206108;28;20193;-76
2022/12/28 00:15:36;;;;;;;2.92;1.70;;;;;;;2.42;97.73;99108.28;4205775;28;20032;-76
2022/12/28 00:17:36;;;;;;;5.63;1.90;;;;;;;2.44;96.83;99106.84;4205137;28;20051;-76
2022/12/28 00:19:36;;;;;;;3.70;1.88;;;;;;;2.38;96.82;99116.28;4189317;28;20050;-76
2022/12/28 00:21:37;;;;;;;3.97;1.65;;;;;;;2.37;97.12;99111.13;4194376;28;20039;-76
2022/12/28 00:23:37;;;;;;;3.28;1.88;;;;;;;2.41;97.43;99109.41;4199588;28;20048;-76
2022/12/28 00:25:37;;;;;;;5.50;2.40;;;;;;;2.44;97.75;99106.06;4189923;28;20131;-76
2022/12/28 00:27:38;;;;;;;7.15;2.15;;;;;;;2.42;97.87;99102.84;4189850;28;20041;-76
2022/12/28 00:29:38;;;;;;;5.10;1.90;;;;;;;2.37;97.26;99098.28;4187512;28;20195;-76
2022/12/28 00:31:38;;;;;;;3.75;1.77;;;;;;;2.33;97.98;99102.75;4194160;28;20048;-76
2022/12/28 00:33:39;;;;;;;4.15;1.70;;;;;;;2.35;98.04;99096.97;4202294;28;20155;-76
2022/12/28 00:35:40;;;;;;;4.70;2.10;;;;;;;2.44;97.95;99097.84;4188220;28;20037;-76
2022/12/28 00:37:40;;;;;;;3.63;1.75;;;;;;;2.45;97.48;99097.53;4200533;28;20044;-76
2022/12/28 00:39:41;;;;;;;3.97;1.70;;;;;;;2.42;97.82;99102.84;4206206;28;20090;-76
2022/12/28 00:41:41;;;;;;;4.22;1.70;;;;;;;2.38;97.86;99094.44;4205096;28;20044;-76
2022/12/28 00:43:42;;;;;;;3.08;1.85;;;;;;;2.36;99.13;99087.66;4204641;28;20044;-76
2022/12/28 00:45:44;;;;;;;4.55;2.15;;;;;;;2.38;100.00;99094.44;4206186;28;20048;-76
2022/12/28 00:47:44;;;;;;;4.43;1.67;;;;;;;2.31;99.73;99088.59;4206143;28;20048;-76
2022/12/28 00:49:45;;;;;;;4.05;1.70;;;;;;;2.29;99.54;99084.56;4205599;28;20559;-76
2022/12/28 00:51:46;;;;;;;2.72;1.60;;;;;;;2.26;100.00;99069.59;4205217;28;20040;-76
2022/12/28 00:53:46;;;;;;;4.20;1.75;;;;;;;2.21;100.00;99080.63;4199097;28;20040;-76
2022/12/28 00:55:46;;;;;;;3.70;1.60;;;;;;;2.25;100.00;99068.00;4203641;28;20753;-76
2022/12/28 00:57:47;;;;;;;4.70;2.00;;;;;;;2.20;100.00;99066.19;4187993;28;20048;-76
2022/12/28 00:59:47;;;;;;;3.63;1.77;;;;;;;2.13;100.00;99054.88;4201822;28;20351;-76
2022/12/28 01:01:47;;;;;;;3.20;1.70;;;;;;;2.09;100.00;99062.06;4199891;28;20087;-76
2022/12/28 01:03:48;;;;;;;2.67;1.50;;;;;;;2.06;100.00;99049.03;4200946;28;20315;-76
2022/12/28 01:05:48;;;;;;;4.47;1.85;;;;;;;2.02;100.00;99039.84;4187842;28;20048;-76
2022/12/28 01:07:49;;;;;;;7.38;1.85;;;;;;;1.98;100.00;99041.56;4189256;28;20159;-76
2022/12/28 01:09:49;;;;;;;6.90;1.73;;;;;;;1.94;100.00;99025.03;4187688;28;20133;-76
2022/12/28 01:11:49;;;;;;;2.10;1.50;;;;;;;1.94;100.00;99021.47;4194350;28;20055;-76
2022/12/28 01:13:52;;;;;;;4.68;1.75;;;;;;;2.09;100.00;99021.13;4204346;28;20044;-76
2022/12/28 01:15:52;;;;;;;5.07;1.95;;;;;;;2.06;100.00;99013.53;4200327;28;20101;-76
2022/12/28 01:17:53;;;;;;;4.50;1.90;;;;;;;2.09;100.00;99006.69;4203360;28;20492;-76
2022/12/28 01:19:53;;;;;;;4.53;2.00;;;;;;;2.04;100.00;99013.06;4205967;28;20484;-76
2022/12/28 01:21:53;;;;;;;4.10;1.95;;;;;;;2.00;100.00;99008.53;4198208;28;20056;-76
2022/12/28 01:23:56;;;;;;;3.38;1.90;;;;;;;2.01;100.00;99007.41;4199566;28;20119;-76
2022/12/28 01:26:00;;;;;;;;;;;;;;;2.04;100.00;99004.06;4204925;28;20135;-76
2022/12/28 01:28:00;;;;;;;4.10;1.70;;;;;;;2.05;100.00;99002.94;4205453;28;19939;-76
2022/12/28 01:30:00;;;;;;;3.92;1.73;;;;;;;2.06;100.00;98994.44;4205658;28;20071;-76
2022/12/28 01:32:00;;;;;;;3.78;1.80;;;;;;;2.06;100.00;98997.16;4204101;28;20449;-76
2022/12/28 01:34:01;;;;;;;2.58;1.77;;;;;;;2.19;100.00;98992.78;4204223;28;20519;-76
2022/12/28 01:36:06;;;;;;;3.10;1.77;;;;;;;2.20;100.00;98987.00;4205595;28;20706;-76
2022/12/28 01:38:06;;;;;;;3.75;1.80;;;;;;;2.29;100.00;98984.34;4205078;28;20353;-76
2022/12/28 01:40:08;;;;;;;3.75;1.80;;;;;;;2.22;100.00;98986.69;4204150;28;20059;-76
2022/12/28 01:42:15;;;;;;;3.88;2.10;;;;;;;2.30;100.00;98980.47;4207302;28;20221;-76
2022/12/28 01:44:15;;;;;;;3.92;1.83;;;;;;;2.36;100.00;98976.50;4205998;28;20027;-76
2022/12/28 01:46:20;;;;;;;4.70;2.10;;;;;;;2.35;100.00;98969.44;4209105;28;20526;-76
2022/12/28 01:48:23;;;;;;;4.30;1.77;;;;;;;2.37;100.00;98956.28;4207987;28;20928;-76
2022/12/28 01:50:27;;;;;;;3.28;1.67;;;;;;;2.41;100.00;98953.75;4209124;28;20047;-76
2022/12/28 01:52:55;;;;;;;4.90;1.73;;;;;;;2.37;100.00;98958.19;4207920;28;20036;-76
2022/12/28 01:55:09;;;;;;;6.10;1.95;;;;;;;2.31;100.00;98943.88;4191717;28;20052;-76
2022/12/28 01:57:09;;;;;;;3.10;1.90;;;;;;;2.29;100.00;98927.00;4194952;28;20818;-76
2022/12/28 01:59:11;;;;;;;3.97;1.88;;;;;;;2.47;100.00;98925.16;4208705;28;20041;-76
2022/12/28 02:01:11;;;;;;;6.95;2.33;;;;;;;2.46;99.71;98910.69;4208284;28;20051;-76
2022/12/28 02:03:19;;;;;;;4.55;1.90;;;;;;;2.51;99.93;98915.22;4195337;28;20523;-76
2022/12/28 02:05:23;;;;;;;3.08;2.08;;;;;;;2.37;99.61;98911.78;4208624;28;20534;-76
2022/12/28 02:07:35;;;;;;;2.15;1.67;;;;;;;2.33;100.00;98895.22;4206910;28;20032;-76
2022/12/28 02:09:39;;;;;;;3.55;1.80;;;;;;;2.41;100.00;98896.41;4206217;28;20414;-76
2022/12/28 02:11:40;;;;;;;1.92;1.48;;;;;;;2.42;100.00;98898.81;4208551;28;20040;-76
2022/12/28 02:13:43;;;;;;;5.85;2.10;;;;;;;2.34;100.00;98893.31;4206985;28;20063;-76
2022/12/28 02:15:44;;;;;;;5.32;2.03;;;;;;;2.40;100.00;98889.28;4205154;28;20495;-76
2022/12/28 02:17:45;;;;;;;3.78;2.00;;;;;;;2.34;100.00;98877.72;4207826;28;20299;-76
2022/12/28 02:19:47;;;;;;;7.25;2.50;;;;;;;2.35;100.00;98873.88;4201731;28;20044;-76
2022/12/28 02:22:18;;;;;;;3.78;2.30;;;;;;;2.35;100.00;98875.78;4193568;28;20040;-76
2022/12/28 02:24:46;;;;;;;6.80;1.83;;;;;;;2.29;100.00;98871.59;4203570;28;20123;-76
2022/12/28 02:27:18;;;;;;;3.67;1.88;;;;;;;2.25;100.00;98855.84;4208410;28;20072;-76
2022/12/28 02:29:43;;;;;;;9.50;2.40;;;;;;;2.20;100.00;98857.88;4210601;28;20116;-76
2022/12/28 02:32:05;;;;;;;5.53;2.00;;;;;;;2.16;100.00;98852.25;4201443;28;20037;-76
2022/12/28 02:34:24;;;;;;;5.18;1.85;;;;;;;2.14;100.00;98854.47;4203953;28;20502;-76
2022/12/28 02:36:31;;;;;;;2.95;2.03;;;;;;;2.25;100.00;98852.31;4208048;28;20055;-76
2022/12/28 02:38:32;;;;;;;3.15;1.73;;;;;;;2.25;100.00;98839.47;4208866;28;20379;-76
2022/12/28 02:40:39;;;;;;;5.50;2.05;;;;;;;2.24;100.00;98837.84;4206730;28;20036;-76
2022/12/28 02:42:42;;;;;;;4.68;1.80;;;;;;;2.28;100.00;98837.22;4207308;28;20040;-76
2022/12/28 02:52:28;;;;;;;4.90;1.80;;;;;;;2.39;100.00;98813.94;4202766;28;20701;-76
2022/12/28 02:57:24;;;;;;;2.80;2.05;;;;;;;2.46;100.00;98797.91;4208062;28;20093;-76
2022/12/28 03:00:00;;;;;;;4.53;2.33;;;;;;;2.54;100.00;98813.53;4202601;28;20438;-76
2022/12/28 03:02:25;;;;;;;4.45;1.90;;;;;;;2.53;100.00;98807.25;4205327;28;20060;-76
2022/12/28 03:04:25;;;;;;;4.45;1.95;;;;;;;2.58;100.00;98808.25;4206778;28;20059;-76
2022/12/28 03:09:18;;;;;;;2.95;1.70;;;;;;;2.64;100.00;98783.19;4207538;28;20058;-76
2022/12/28 03:11:25;;;;;;;3.78;1.88;;;;;;;2.71;100.00;98783.50;4199570;28;20044;-76
2022/12/28 03:13:42;;;;;;;6.07;2.35;;;;;;;2.73;99.86;98775.00;4205873;28;20442;-76
2022/12/28 03:15:43;;;;;;;3.63;1.98;;;;;;;2.89;99.86;98758.94;4205315;28;20024;-76
2022/12/28 03:31:58;;;;;;;3.95;2.53;;;;;;;2.97;100.00;98749.94;4206308;28;20104;-76
2022/12/28 03:34:05;;;;;;;3.03;2.28;;;;;;;2.95;100.00;98746.72;4205479;28;20052;-76
2022/12/28 03:36:25;;;;;;;3.67;2.40;;;;;;;2.99;100.00;98732.13;4205766;28;20253;-76
2022/12/28 03:38:35;;;;;;;5.25;2.90;;;;;;;2.97;100.00;98739.81;4207475;28;20045;-76
2022/12/28 03:40:51;;;;;;;5.03;2.67;;;;;;;2.92;100.00;98734.53;4204516;28;20039;-76
2022/12/28 03:45:36;;;;;;;4.90;2.50;;;;;;;2.91;100.00;98722.00;4190684;28;20054;-76
2022/12/28 03:47:38;;;;;;;7.75;3.38;;;;;;;2.93;100.00;98725.19;4190538;28;20044;-76
2022/12/28 03:49:40;;;;;;;4.35;2.80;;;;;;;2.90;100.00;98734.06;4190310;28;20055;-76
2022/12/28 03:51:42;;;;;;;5.97;3.08;;;;;;;2.85;100.00;98736.13;4200852;28;20051;-76
2022/12/28 03:53:44;;;;;;;3.70;2.72;;;;;;;2.85;100.00;98730.66;4199704;28;20106;-76
2022/12/28 03:55:44;;;;;;;;;;;;;;;2.87;100.00;98736.59;4190598;28;20055;-76
2022/12/28 03:57:45;;;;;;;5.78;2.92;;;;;;;2.95;100.00;98719.41;4201896;28;19912;-76
2022/12/28 03:59:45;;;;;;;3.75;2.72;;;;;;;3.02;100.00;98738.84;4205469;28;20110;-76
2022/12/28 04:01:45;;;;;;;6.65;2.70;;;;;;;3.08;100.00;98735.66;4209520;28;20052;-76
2022/12/28 04:03:46;;;;;;;3.38;2.63;;;;;;;3.11;100.00;98739.66;4206209;28;20151;-76
2022/12/28 04:05:46;;;;;;;4.78;2.63;;;;;;;3.20;99.75;98725.97;4206993;28;20233;-76
2022/12/28 04:07:47;;;;;;;4.20;2.38;;;;;;;3.15;99.77;98737.91;4206549;28;20040;-76
2022/12/28 04:09:48;;;;;;;5.43;2.80;;;;;;;3.14;99.84;98738.19;4206669;28;20130;-76
2022/12/28 04:11:48;;;;;;;3.47;2.35;;;;;;;3.12;100.00;98738.53;4192842;28;20434;-76
2022/12/28 04:13:48;;;;;;;5.00;2.70;;;;;;;3.12;99.92;98733.06;4202898;28;20052;-76
2022/12/28 04:16:01;;;;;;;4.70;2.65;;;;;;;3.13;99.88;98731.94;4201823;28;20089;-76
2022/12/28 04:18:01;;;;;;;4.38;2.58;;;;;;;3.19;99.61;98727.91;4206212;28;20100;-76
2022/12/28 04:20:02;;;;;;;3.33;2.65;;;;;;;3.14;99.95;98706.19;4207092;28;20032;-76
2022/12/28 04:22:02;;;;;;;4.95;2.20;;;;;;;3.19;100.00;98714.25;4204361;28;20074;-76
2022/12/28 04:24:03;;;;;;;5.45;2.60;;;;;;;3.25;100.00;98703.94;4205272;28;20383;-76
2022/12/28 04:26:07;;;;;;;4.80;3.00;;;;;;;3.29;100.00;98708.44;4206430;28;20388;-76
2022/12/28 04:28:08;;;;;;;4.50;2.42;;;;;;;3.29;100.00;98689.28;4204798;28;20055;-76
2022/12/28 04:30:09;;;;;;;4.60;2.40;;;;;;;3.38;100.00;98683.78;4205368;28;20024;-76
2022/12/28 04:32:09;;;;;;;3.55;2.80;;;;;;;3.40;99.84;98697.16;4191672;28;20476;-76
2022/12/28 04:34:10;;;;;;;2.97;2.25;;;;;;;3.33;100.00;98687.53;4197469;28;20290;-76
2022/12/28 04:36:15;;;;;;;4.20;2.63;;;;;;;3.32;100.00;98685.91;4204721;28;20028;-76
2022/12/28 04:38:15;;;;;;;4.35;2.50;;;;;;;3.32;100.00;98691.38;4206256;28;20130;-77
2022/12/28 04:40:16;;;;;;;3.92;2.25;;;;;;;3.36;100.00;98691.53;4206175;28;20507;-76
2022/12/28 04:42:16;;;;;;;5.18;2.45;;;;;;;3.39;99.69;98690.88;4205380;28;20115;-76
2022/12/28 04:44:17;;;;;;;4.15;2.50;;;;;;;3.38;100.00;98698.28;4198043;28;20071;-76
2022/12/28 04:46:17;;;;;;;5.22;2.60;;;;;;;3.42;100.00;98692.97;4212699;28;20024;-77
2022/12/28 04:48:17;;;;;;;5.50;2.28;;;;;;;3.41;100.00;98687.84;4197097;28;20047;-76
2022/12/28 04:50:18;;;;;;;4.38;2.25;;;;;;;3.41;100.00;98677.69;4189586;28;20289;-76
2022/12/28 04:52:18;;;;;;;3.50;2.35;;;;;;;3.45;100.00;98677.84;4198429;28;20151;-77
2022/12/28 04:54:18;;;;;;;4.43;2.53;;;;;;;3.49;99.78;98684.28;4203475;28;20036;-76
2022/12/28 04:56:20;;;;;;;3.78;2.30;;;;;;;3.47;100.00;98689.25;4205335;28;20507;-76
2022/12/28 04:58:21;;;;;;;5.13;2.33;;;;;;;3.54;99.81;98681.34;4205892;28;20058;-76
2022/12/28 05:00:21;;;;;;;4.80;2.53;;;;;;;3.56;99.88;98677.16;4206161;28;20114;-76
2022/12/28 05:02:22;;;;;;;5.00;2.30;;;;;;;3.54;100.00;98684.06;4204712;28;20055;-76
2022/12/28 05:04:22;;;;;;;3.03;2.38;;;;;;;3.57;99.76;98677.97;4197243;28;20049;-76
2022/12/28 05:06:24;;;;;;;2.65;2.30;;;;;;;3.55;100.00;98686.47;4206226;28;20490;-76
2022/12/28 05:08:24;;;;;;;4.23;2.10;;;;;;;3.58;99.53;98674.09;4205977;28;20032;-76
2022/12/28 05:10:24;;;;;;;5.30;2.30;;;;;;;3.50;99.97;98692.16;4205613;28;20357;-76
2022/12/28 05:12:25;;;;;;;4.20;3.22;;;;;;;3.46;100.00;98687.63;4203290;28;20041;-76
2022/12/28 05:14:25;;;;;;;3.15;2.20;;;;;;;3.39;100.00;98682.66;4206451;28;20766;-76
2022/12/28 05:16:27;;;;;;;3.28;2.30;;;;;;;3.39;100.00;98674.47;4194779;28;20124;-76
2022/12/28 05:18:28;;;;;;;6.70;2.88;;;;;;;3.34;100.00;98666.44;4192119;28;20106;-76
2022/12/28 05:20:29;;;;;;;2.50;2.00;;;;;;;3.36;100.00;98664.97;4195083;28;20040;-77
2022/12/28 05:22:29;;;;;;;6.07;2.75;;;;;;;3.32;100.00;98669.50;4197996;28;20945;-76
2022/12/28 05:24:29;;;;;;;4.15;2.80;;;;;;;3.34;100.00;98667.25;4198546;28;20548;-77
2022/12/28 05:26:30;;;;;;;3.38;2.42;;;;;;;3.37;100.00;98652.91;4205912;28;20388;-77
2022/12/28 05:28:30;;;;;;;5.88;2.90;;;;;;;3.41;100.00;98658.56;4205790;28;20498;-76
2022/12/28 05:30:31;;;;;;;4.50;2.67;;;;;;;3.43;100.00;98656.28;4204277;28;20040;-76
2022/12/28 05:32:31;;;;;;;3.75;2.55;;;;;;;3.40;100.00;98645.19;4189166;28;20044;-76
2022/12/28 05:34:31;;;;;;;4.88;2.47;;;;;;;3.38;100.00;98645.50;4197257;28;20139;-76
2022/12/28 05:36:35;;;;;;;4.88;2.28;;;;;;;3.36;100.00;98637.63;4188873;28;20136;-76
2022/12/28 05:38:36;;;;;;;4.05;2.63;;;;;;;3.31;100.00;98637.00;4188712;28;20056;-76
2022/12/28 05:40:36;;;;;;;3.25;2.28;;;;;;;3.28;100.00;98630.25;4193433;28;20044;-76
2022/12/28 05:42:37;;;;;;;5.55;3.00;;;;;;;3.22;100.00;98620.63;4195693;28;20048;-76
2022/12/28 05:44:37;;;;;;;4.43;2.88;;;;;;;3.26;100.00;98612.56;4211705;28;20040;-76
2022/12/28 05:46:37;;;;;;;5.65;2.72;;;;;;;3.24;100.00;98601.16;4192562;28;20119;-76
2022/12/28 05:48:39;;;;;;;4.22;2.40;;;;;;;3.20;100.00;98587.34;4189082;28;20400;-76
2022/12/28 05:50:40;;;;;;;3.13;2.42;;;;;;;3.20;100.00;98605.66;4189241;28;20074;-76
2022/12/28 05:52:40;;;;;;;4.32;2.70;;;;;;;3.18;100.00;98595.06;4186751;28;20037;-76
2022/12/28 05:54:40;;;;;;;3.80;2.50;;;;;;;3.16;100.00;98591.06;4197306;28;20523;-76
2022/12/28 05:56:41;;;;;;;3.72;2.40;;;;;;;3.14;100.00;98596.03;4096398;28;20045;-76
2022/12/28 05:58:42;;;;;;;4.10;2.83;;;;;;;3.14;100.00;98587.84;4210804;28;20053;-76
2022/12/28 06:00:43;;;;;;;3.75;2.65;;;;;;;3.12;100.00;98587.38;4203245;28;20048;-76
2022/12/28 06:02:43;;;;;;;3.70;2.78;;;;;;;3.13;100.00;98589.75;4203760;28;20040;-76
2022/12/28 06:04:43;;;;;;;3.97;2.70;;;;;;;3.11;100.00;98578.34;4195556;28;20127;-76
2022/12/28 06:06:45;;;;;;;5.53;2.95;;;;;;;3.07;100.00;98591.09;4188691;28;20037;-76
2022/12/28 06:08:47;;;;;;;4.70;2.75;;;;;;;3.08;100.00;98587.22;4194058;28;20040;-76
2022/12/28 06:10:47;;;;;;;9.23;4.57;;;;;;;3.05;100.00;98585.13;4203404;28;20044;-76
2022/12/28 06:12:48;;;;;;;3.45;2.63;;;;;;;3.09;100.00;98595.09;4204383;28;20528;-76
2022/12/28 06:14:48;;;;;;;3.42;2.55;;;;;;;3.10;100.00;98584.97;4203333;28;20048;-76
2022/12/28 06:16:50;;;;;;;3.55;2.47;;;;;;;3.13;100.00;98589.75;4195596;28;20124;-76
2022/12/28 06:18:53;;;;;;;3.60;2.47;;;;;;;3.13;100.00;98587.03;4200262;28;20106;-76
2022/12/28 06:20:53;;;;;;;4.15;2.20;;;;;;;3.22;100.00;98587.00;4195173;28;20051;-76
2022/12/28 06:22:54;;;;;;;3.03;2.38;;;;;;;3.24;100.00;98590.22;4205328;28;20071;-76
2022/12/28 06:24:54;;;;;;;3.20;2.25;;;;;;;3.24;100.00;98582.84;4202666;28;20048;-76
2022/12/28 06:26:54;;;;;;;2.92;2.60;;;;;;;3.26;100.00;98574.28;4192602;28;20056;-76
2022/12/28 06:28:55;;;;;;;4.03;2.00;;;;;;;3.26;100.00;98579.75;4207903;28;20056;-76
2022/12/28 06:31:12;;;;;;;4.38;2.33;;;;;;;3.22;100.00;98579.59;4199749;28;20044;-76
2022/12/28 06:33:13;;;;;;;3.33;2.20;;;;;;;3.24;100.00;98584.75;4204700;28;20048;-76
2022/12/28 06:35:13;;;;;;;3.88;2.17;;;;;;;3.25;100.00;98568.03;4207526;28;20530;-76
2022/12/28 06:37:13;;;;;;;3.45;2.10;;;;;;;3.27;100.00;98578.63;4206085;28;20044;-76
2022/12/28 06:39:14;;;;;;;2.60;2.00;;;;;;;3.31;100.00;98566.72;4207498;28;20051;-76
2022/12/28 06:41:16;;;;;;;3.72;2.25;;;;;;;3.38;100.00;98574.41;4207569;28;20054;-76
2022/12/28 06:43:16;;;;;;;4.43;2.27;;;;;;;3.44;100.00;98567.63;4206020;28;20043;-76
2022/12/28 06:45:16;;;;;;;4.97;2.47;;;;;;;3.51;100.00;98547.97;4207552;28;20040;-76
2022/12/28 06:47:17;;;;;;;2.70;2.10;;;;;;;3.57;100.00;98546.66;4207681;28;20135;-76
2022/12/28 06:49:17;;;;;;;2.85;2.15;;;;;;;3.58;100.00;98545.50;4207448;28;20056;-76
2022/12/28 06:51:20;;;;;;;2.83;2.03;;;;;;;3.53;100.00;98535.56;4208099;28;20055;-76
2022/12/28 06:53:21;;;;;;;2.78;2.33;;;;;;;3.49;100.00;98537.34;4206589;28;20082;-76
2022/12/28 06:55:22;;;;;;;4.07;2.13;;;;;;;3.50;100.00;98529.94;4207979;28;20130;-76
2022/12/28 06:57:22;;;;;;;4.55;2.60;;;;;;;3.52;100.00;98528.47;4207951;28;20387;-76
2022/12/28 06:59:23;;;;;;;2.70;2.35;;;;;;;3.61;100.00;98537.44;4207937;28;20036;-75
2022/12/28 07:01:25;;;;;;;3.08;2.20;;;;;;;3.62;100.00;98527.28;4207916;28;20071;-76
2022/12/28 07:03:26;;;;;;;3.13;2.53;;;;;;;3.67;100.00;98518.91;4206875;28;20530;-76
2022/12/28 07:05:26;;;;;;;3.33;2.10;;;;;;;3.65;100.00;98519.25;4204701;28;20052;-76
2022/12/28 07:07:27;;;;;;;3.83;2.15;;;;;;;3.74;100.00;98523.84;4211889;28;20427;-76
2022/12/28 07:09:27;;;;;;;3.33;2.45;;;;;;;3.79;100.00;98505.28;4198235;28;20055;-76
2022/12/28 07:11:28;;;;;;;3.63;2.38;;;;;;;3.79;100.00;98513.50;4203036;28;20032;-76
2022/12/28 07:13:28;;;;;;;3.85;2.30;;;;;;;3.79;100.00;98515.44;4188875;28;20516;-76
2022/12/28 07:15:29;;;;;;;3.78;2.38;;;;;;;3.73;100.00;98520.31;4190815;28;20077;-76
2022/12/28 07:17:29;;;;;;;3.70;2.47;;;;;;;3.78;100.00;98516.56;4201605;28;20048;-76
2022/12/28 07:19:30;;;;;;;4.57;2.63;;;;;;;3.71;100.00;98508.88;4207409;28;20043;-76
2022/12/28 07:21:32;;;;;;;3.22;2.28;;;;;;;3.82;100.00;98514.78;4207093;28;20047;-76
2022/12/28 07:23:34;;;;;;;3.08;2.47;;;;;;;3.91;100.00;98521.00;4203943;28;20052;-76
2022/12/28 07:25:34;;;;;;;4.93;2.20;;;;;;;3.89;100.00;98515.06;4202575;28;20083;-76
2022/12/28 07:27:35;;;;;;;6.45;2.80;;;;;;;3.90;100.00;98524.88;4204207;28;20065;-76
2022/12/28 07:29:36;;;;;;;4.53;2.60;;;;;;;3.89;100.00;98526.00;4213028;27;20047;-76
2022/12/28 07:31:39;;;;;;;4.57;2.08;;;;;;;3.87;100.00;98518.13;4199822;27;20131;-76
2022/12/28 07:33:40;;;;;;;3.97;2.65;;;;;;;3.89;100.00;98507.66;4201108;28;20120;-76
2022/12/28 07:35:40;;;;;;;3.33;2.38;;;;;;;3.90;100.00;98508.44;4196186;28;20036;-76
2022/12/28 07:37:40;;;;;;;4.45;2.88;;;;;;;3.98;100.00;98510.31;4204167;28;20043;-76
2022/12/28 07:39:41;;;;;;;5.60;3.25;;;;;;;4.06;100.00;98514.94;4199178;28;20075;-76
2022/12/28 07:41:41;;;;;;;4.07;2.67;;;;;;;4.05;100.00;98517.97;4201240;28;20480;-76
2022/12/28 07:43:42;;;;;;;4.45;2.60;;;;;;;4.04;100.00;98508.97;4197425;28;20040;-76
2022/12/28 07:45:42;;;;;;;5.28;3.42;;;;;;;4.03;100.00;98514.78;4198235;28;20078;-76
2022/12/28 07:47:43;;;;;;;5.80;3.20;;;;;;;4.02;100.00;98515.91;4196484;28;20485;-76
2022/12/28 07:49:43;;;;;;;7.93;3.70;;;;;;;4.03;100.00;98520.25;4194138;28;20036;-76
2022/12/28 07:51:43;;;;;;;5.00;3.33;;;;;;;4.04;100.00;98511.72;4198962;28;20038;-76
2022/12/28 07:53:46;;;;;;;4.72;3.30;;;;;;;4.10;100.00;98513.13;4196205;28;20102;-76
2022/12/28 07:55:57;;;;;;;5.40;3.15;;;;;;;4.09;100.00;98500.56;4199094;28;20055;-76
2022/12/28 07:57:57;;;;;;;4.10;2.72;;;;;;;4.11;100.00;98498.28;4202373;28;20043;-76
2022/12/28 07:59:57;;;;;;;3.95;2.75;;;;;;;4.13;100.00;98484.25;4202312;28;20032;-76
2022/12/28 08:01:58;;;;;;;3.53;2.75;;;;;;;4.17;100.00;98490.69;4204259;28;20066;-76
2022/12/28 08:04:03;;;;;;;3.90;2.83;;;;;;;4.20;100.00;98479.03;4199899;28;20088;-76
2022/12/28 08:06:05;;;;;;;3.00;2.40;;;;;;;4.28;100.00;98474.63;4195601;28;20056;-76
2022/12/28 08:08:05;;;;;;;3.20;2.23;;;;;;;4.30;100.00;98486.03;4196132;28;20074;-76
2022/12/28 08:10:06;;;;;;;11.35;3.22;;;;;;;4.32;100.00;98486.53;4199004;28;20024;-76
2022/12/28 08:12:06;;;;;;;8.07;3.30;;;;;;;4.28;100.00;98482.84;4196730;28;20039;-76
2022/12/28 08:14:08;;;;;;;4.85;3.10;;;;;;;4.28;100.00;98485.59;4195782;28;20020;-76
2022/12/28 08:16:11;;;;;;;4.05;2.63;;;;;;;4.29;100.00;98484.44;4200161;28;20198;-76
2022/12/28 08:18:11;;;;;;;4.18;2.38;;;;;;;4.29;100.00;98478.97;4196009;28;20477;-76
2022/12/28 08:20:11;;;;;;;8.82;4.68;;;;;;;4.28;100.00;98482.84;4197260;28;20078;-76
2022/12/28 08:22:12;;;;;;;8.27;4.20;;;;;;;4.26;100.00;98474.97;4201127;28;20028;-76
2022/12/28 08:24:15;;;;;;;6.45;4.07;;;;;;;4.23;100.00;98468.22;4201351;28;20460;-76
2022/12/28 08:26:33;;;;;;;4.65;2.58;;;;;;;4.28;100.00;98480.91;4200443;28;20043;-76
2022/12/28 08:28:34;;;;;;;7.25;3.90;;;;;;;4.31;100.00;98488.47;4194931;28;20248;-76
2022/12/28 08:30:35;;;;;;;7.80;3.20;;;;;;;4.30;100.00;98492.31;4197819;28;20046;-76
2022/12/28 08:32:35;;;;;;;4.57;2.97;;;;;;;4.38;100.00;98485.97;4197650;28;20040;-76
2022/12/28 08:34:35;;;;;;;5.13;3.35;;;;;;;4.42;100.00;98491.59;4211060;28;20643;-76
2022/12/28 08:36:36;;;;;;;4.32;2.47;;;;;;;4.46;100.00;98487.00;4189496;28;20041;-76
2022/12/28 08:38:37;;;;;;;6.05;2.83;;;;;;;4.53;100.00;98491.94;4189124;28;20044;-76
2022/12/28 08:40:38;;;;;;;3.90;2.78;;;;;;;4.56;100.00;98496.78;4190052;28;20039;-76
2022/12/28 08:42:38;;;;;;;8.02;3.10;;;;;;;4.58;100.00;98489.00;4188812;28;20040;-77
2022/12/28 08:44:38;;;;;;;10.52;2.85;;;;;;;4.63;100.00;98497.00;4188194;28;20032;-76
2022/12/28 08:46:39;;;;;;;4.95;2.75;;;;;;;4.70;100.00;98500.00;4189249;28;20043;-76
2022/12/28 08:48:40;;;;;;;4.50;2.97;;;;;;;4.83;100.00;98501.63;4189152;28;20044;-76
2022/12/28 08:50:41;;;;;;;3.35;2.63;;;;;;;4.87;100.00;98496.25;4188942;28;20047;-76
2022/12/28 08:52:41;;;;;;;6.80;3.42;;;;;;;4.89;100.00;98494.81;4189002;28;20052;-76
2022/12/28 08:54:41;;;;;;;3.35;2.63;;;;;;;4.91;100.00;98492.50;4189597;28;20033;-76
2022/12/28 08:56:43;;;;;;;4.03;2.47;;;;;;;4.92;100.00;98491.38;4187983;28;20048;-76
2022/12/28 08:58:45;;;;;;;4.93;2.95;;;;;;;4.95;100.00;98496.16;4189370;28;20029;-76
2022/12/28 09:00:45;;;;;;;6.10;2.90;;;;;;;4.97;99.93;98493.91;4189484;28;20048;-76
2022/12/28 09:02:45;;;;;;;4.47;2.63;;;;;;;4.95;99.33;98471.47;4192292;28;20361;-76
2022/12/28 09:04:46;;;;;;;3.67;2.80;;;;;;;5.04;99.23;98480.41;4206019;28;20032;-76
2022/12/28 09:06:47;;;;;;;4.20;2.80;;;;;;;5.03;98.80;98470.56;4206025;28;20049;-76
2022/12/28 09:08:52;;;;;;;3.97;2.42;;;;;;;5.06;98.87;98464.44;4204688;28;20044;-76
2022/12/28 09:10:53;;;;;;;3.97;2.55;;;;;;;5.10;99.01;98467.28;4204706;28;20414;-76
2022/12/28 09:12:53;;;;;;;4.68;3.00;;;;;;;5.07;98.33;98474.25;4205508;28;20101;-76
2022/12/28 09:14:53;;;;;;;3.95;2.78;;;;;;;5.03;98.56;98467.03;4198485;28;20044;-76
2022/12/28 09:16:54;;;;;;;4.05;2.22;;;;;;;5.05;98.87;98468.31;4206030;28;20468;-76
2022/12/28 09:18:57;;;;;;;6.25;3.22;;;;;;;5.08;98.56;98464.88;4205698;28;20097;-76
2022/12/28 09:21:17;;;;;;;3.78;2.38;;;;;;;5.18;98.21;98462.81;4205925;28;20044;-76
2022/12/28 09:23:17;;;;;;;4.00;2.75;;;;;;;5.24;97.80;98464.19;4204847;28;20048;-76
2022/12/28 09:25:18;;;;;;;6.00;2.80;;;;;;;5.29;97.31;98463.97;4206035;28;20560;-76
2022/12/28 09:27:18;;;;;;;3.70;2.78;;;;;;;5.29;97.59;98451.03;4205602;28;20040;-76
2022/12/28 09:29:18;;;;;;;4.18;2.50;;;;;;;5.38;97.11;98441.88;4205487;28;20055;-76
2022/12/28 09:31:22;;;;;;;4.15;2.40;;;;;;;5.33;97.17;98449.22;4205897;28;20036;-76
2022/12/28 09:35:41;;;;;;;5.82;2.60;;;;;;;5.38;97.07;98442.72;4199965;28;20070;-76
2022/12/28 09:37:41;;;;;;;4.22;2.53;;;;;;;5.42;97.05;98426.34;4205366;28;20040;-76
2022/12/28 09:39:42;;;;;;;4.28;2.60;;;;;;;5.45;97.26;98418.22;4199880;28;20101;-76
2022/12/28 09:41:53;;;;;;;4.97;2.60;;;;;;;5.54;96.47;98424.38;4201889;28;20032;-76
2022/12/28 09:44:06;;;;;;;4.00;2.30;;;;;;;5.55;96.44;98420.50;4202114;28;20115;-76
2022/12/28 09:46:07;;;;;;;5.13;2.40;;;;;;;5.55;96.64;98405.97;4203761;28;20040;-76
2022/12/28 09:48:15;;;;;;;3.50;2.50;;;;;;;5.57;96.27;98400.94;4204988;28;20023;-76
2022/12/28 09:50:15;;;;;;;7.82;2.28;;;;;;;5.59;96.21;98409.63;4197594;28;20640;-76
2022/12/28 09:52:28;;;;;;;7.63;2.50;;;;;;;5.62;95.95;98420.69;4210160;28;20023;-77
2022/12/28 09:54:29;;;;;;;5.85;3.30;;;;;;;5.68;96.26;98413.03;4197861;28;20075;-76
2022/12/28 09:56:35;;;;;;;5.55;2.50;;;;;;;5.70;96.35;98415.41;4189004;28;20049;-76
2022/12/28 09:58:39;;;;;;;3.80;2.30;;;;;;;5.67;96.03;98416.13;4188656;28;20045;-76
2022/12/28 10:00:41;;;;;;;5.75;2.55;;;;;;;5.72;96.05;98422.19;4188094;28;20048;-76
2022/12/28 10:02:47;;;;;;;3.53;2.13;;;;;;;5.74;95.94;98430.06;4189481;28;20055;-76
2022/12/28 10:04:49;;;;;;;5.18;2.40;;;;;;;5.76;95.69;98433.25;4198373;28;20036;-76
2022/12/28 10:06:49;;;;;;;6.05;2.22;;;;;;;5.73;95.36;98421.03;4205025;28;20053;-76
2022/12/28 10:08:53;;;;;;;4.78;2.53;;;;;;;5.73;96.04;98431.22;4194583;28;20443;-76
2022/12/28 10:10:58;;;;;;;4.50;2.17;;;;;;;5.77;95.92;98432.91;4190973;28;20056;-76
2022/12/28 10:13:14;;;;;;;6.10;2.70;;;;;;;5.70;95.86;98418.16;4188961;28;20462;-76